sensor_id;sensor_type;location;lat;lon;timestamp;pressure;altitude;pressure_sealevel;temperature
69420;BMP280;71621;52.030;113.516;2023-11-21T00:00:24;93627.00;;;-4.54
69420;BMP280;71621;52.030;113.516;2023-11-21T00:03:27;93623.53;;;-4.57
69420;BMP280;71621;52.030;113.516;2023-11-21T00:06:31;93628.38;;;-4.53
69420;BMP280;71621;52.030;113.516;2023-11-21T00:09:34;93628.69;;;-4.49
69420;BMP280;71621;52.030;113.516;2023-11-21T00:12:39;93629.94;;;-4.58
69420;BMP280;71621;52.030;113.516;2023-11-21T00:15:44;93631.00;;;-4.61
69420;BMP280;71621;52.030;113.516;2023-11-21T00:18:48;93631.00;;;-4.61
69420;BMP280;71621;52.030;113.516;2023-11-21T00:21:51;93632.91;;;-4.61
69420;BMP280;71621;52.030;113.516;2023-11-21T00:24:55;93633.81;;;-4.66
69420;BMP280;71621;52.030;113.516;2023-11-21T00:27:58;93631.22;;;-4.82
69420;BMP280;71621;52.030;113.516;2023-11-21T00:31:05;93648.63;;;-4.84
69420;BMP280;71621;52.030;113.516;2023-11-21T00:34:08;93651.91;;;-4.84
69420;BMP280;71621;52.030;113.516;2023-11-21T00:37:12;93655.94;;;-4.90
69420;BMP280;71621;52.030;113.516;2023-11-21T00:40:16;93653.69;;;-4.94
69420;BMP280;71621;52.030;113.516;2023-11-21T00:43:24;93657.50;;;-4.87
69420;BMP280;71621;52.030;113.516;2023-11-21T00:46:27;93667.41;;;-4.86
69420;BMP280;71621;52.030;113.516;2023-11-21T00:49:32;93658.50;;;-4.83
69420;BMP280;71621;52.030;113.516;2023-11-21T00:52:35;93666.34;;;-4.75
69420;BMP280;71621;52.030;113.516;2023-11-21T00:55:39;93690.13;;;-4.79
69420;BMP280;71621;52.030;113.516;2023-11-21T00:58:43;93684.75;;;-4.81
69420;BMP280;71621;52.030;113.516;2023-11-21T01:01:48;93680.06;;;-4.74
69420;BMP280;71621;52.030;113.516;2023-11-21T01:04:51;93692.88;;;-4.61
69420;BMP280;71621;52.030;113.516;2023-11-21T01:07:55;93688.03;;;-4.57
69420;BMP280;71621;52.030;113.516;2023-11-21T01:10:58;93691.81;;;-4.51
69420;BMP280;71621;52.030;113.516;2023-11-21T01:14:03;93686.91;;;-4.39
69420;BMP280;71621;52.030;113.516;2023-11-21T01:17:07;93686.19;;;-4.32
69420;BMP280;71621;52.030;113.516;2023-11-21T01:20:11;93677.28;;;-4.21
69420;BMP280;71621;52.030;113.516;2023-11-21T01:23:16;93681.63;;;-4.16
69420;BMP280;71621;52.030;113.516;2023-11-21T01:26:20;93691.66;;;-4.05
69420;BMP280;71621;52.030;113.516;2023-11-21T01:29:24;93688.13;;;-4.00
69420;BMP280;71621;52.030;113.516;2023-11-21T01:32:27;93684.97;;;-3.90
69420;BMP280;71621;52.030;113.516;2023-11-21T01:35:31;93691.84;;;-3.78
69420;BMP280;71621;52.030;113.516;2023-11-21T01:38:35;93687.84;;;-3.71
69420;BMP280;71621;52.030;113.516;2023-11-21T01:41:39;93684.84;;;-3.67
69420;BMP280;71621;52.030;113.516;2023-11-21T01:44:42;93680.69;;;-3.71
69420;BMP280;71621;52.030;113.516;2023-11-21T01:47:46;93688.63;;;-3.61
69420;BMP280;71621;52.030;113.516;2023-11-21T01:50:50;93691.69;;;-3.47
69420;BMP280;71621;52.030;113.516;2023-11-21T01:53:54;93694.25;;;-3.39
69420;BMP280;71621;52.030;113.516;2023-11-21T01:56:59;93686.97;;;-3.24
69420;BMP280;71621;52.030;113.516;2023-11-21T02:00:07;93682.84;;;-3.09
69420;BMP280;71621;52.030;113.516;2023-11-21T02:03:20;93673.78;;;-3.08
69420;BMP280;71621;52.030;113.516;2023-11-21T02:06:24;93683.41;;;-2.94
69420;BMP280;71621;52.030;113.516;2023-11-21T02:09:27;93683.56;;;-2.74
69420;BMP280;71621;52.030;113.516;2023-11-21T02:12:33;93686.09;;;-2.67
69420;BMP280;71621;52.030;113.516;2023-11-21T02:15:38;93683.63;;;-2.65
69420;BMP280;71621;52.030;113.516;2023-11-21T02:18:41;93683.97;;;-2.61
69420;BMP280;71621;52.030;113.516;2023-11-21T02:21:45;93675.97;;;-2.63
69420;BMP280;71621;52.030;113.516;2023-11-21T02:24:51;93681.81;;;-2.54
69420;BMP280;71621;52.030;113.516;2023-11-21T02:27:56;93686.19;;;-2.40
69420;BMP280;71621;52.030;113.516;2023-11-21T02:31:00;93685.03;;;-2.29
69420;BMP280;71621;52.030;113.516;2023-11-21T02:34:05;93677.59;;;-2.23
69420;BMP280;71621;52.030;113.516;2023-11-21T02:37:09;93686.41;;;-2.28
69420;BMP280;71621;52.030;113.516;2023-11-21T02:40:13;93681.47;;;-2.24
69420;BMP280;71621;52.030;113.516;2023-11-21T02:43:21;93685.81;;;-2.09
69420;BMP280;71621;52.030;113.516;2023-11-21T02:46:24;93683.28;;;-1.90
69420;BMP280;71621;52.030;113.516;2023-11-21T02:49:28;93689.53;;;-1.85
69420;BMP280;71621;52.030;113.516;2023-11-21T02:52:32;93696.19;;;-1.75
69420;BMP280;71621;52.030;113.516;2023-11-21T02:55:36;93696.97;;;-1.55
69420;BMP280;71621;52.030;113.516;2023-11-21T02:58:43;93696.06;;;-1.30
69420;BMP280;71621;52.030;113.516;2023-11-21T03:01:47;93686.75;;;-1.14
69420;BMP280;71621;52.030;113.516;2023-11-21T03:04:52;93684.66;;;-0.96
69420;BMP280;71621;52.030;113.516;2023-11-21T03:07:56;93669.22;;;-0.92
69420;BMP280;71621;52.030;113.516;2023-11-21T03:11:00;93668.66;;;-0.91
69420;BMP280;71621;52.030;113.516;2023-11-21T03:14:06;93664.25;;;-0.78
69420;BMP280;71621;52.030;113.516;2023-11-21T03:17:09;93660.09;;;-0.62
69420;BMP280;71621;52.030;113.516;2023-11-21T03:20:13;93656.34;;;-0.49
69420;BMP280;71621;52.030;113.516;2023-11-21T03:23:16;93658.28;;;-0.40
69420;BMP280;71621;52.030;113.516;2023-11-21T03:26:20;93649.72;;;-0.50
69420;BMP280;71621;52.030;113.516;2023-11-21T03:29:23;93649.19;;;-0.68
69420;BMP280;71621;52.030;113.516;2023-11-21T03:32:27;93641.75;;;-0.62
69420;BMP280;71621;52.030;113.516;2023-11-21T03:35:30;93650.41;;;-0.50
69420;BMP280;71621;52.030;113.516;2023-11-21T03:38:34;93652.75;;;-0.44
69420;BMP280;71621;52.030;113.516;2023-11-21T03:41:37;93650.81;;;-0.44
69420;BMP280;71621;52.030;113.516;2023-11-21T03:44:42;93639.75;;;-0.42
69420;BMP280;71621;52.030;113.516;2023-11-21T03:47:45;93636.72;;;-0.48
69420;BMP280;71621;52.030;113.516;2023-11-21T03:50:50;93632.72;;;-0.40
69420;BMP280;71621;52.030;113.516;2023-11-21T03:53:53;93622.91;;;-0.30
69420;BMP280;71621;52.030;113.516;2023-11-21T03:56:57;93630.06;;;-0.20
69420;BMP280;71621;52.030;113.516;2023-11-21T04:00:00;93623.97;;;-0.23
69420;BMP280;71621;52.030;113.516;2023-11-21T04:03:13;93619.16;;;-0.36
69420;BMP280;71621;52.030;113.516;2023-11-21T04:06:17;93628.44;;;-0.45
69420;BMP280;71621;52.030;113.516;2023-11-21T04:09:21;93631.19;;;-0.52
69420;BMP280;71621;52.030;113.516;2023-11-21T04:12:28;93619.19;;;-0.46
69420;BMP280;71621;52.030;113.516;2023-11-21T04:15:31;93627.03;;;-0.36
69420;BMP280;71621;52.030;113.516;2023-11-21T04:18:38;93628.28;;;-0.27
69420;BMP280;71621;52.030;113.516;2023-11-21T04:21:42;93622.00;;;-0.13
69420;BMP280;71621;52.030;113.516;2023-11-21T04:24:46;93632.75;;;0.01
69420;BMP280;71621;52.030;113.516;2023-11-21T04:27:50;93633.13;;;0.07
69420;BMP280;71621;52.030;113.516;2023-11-21T04:30:53;93641.47;;;0.04
69420;BMP280;71621;52.030;113.516;2023-11-21T04:33:57;93638.78;;;0.13
69420;BMP280;71621;52.030;113.516;2023-11-21T04:37:01;93638.06;;;0.22
69420;BMP280;71621;52.030;113.516;2023-11-21T04:40:04;93638.75;;;0.23
69420;BMP280;71621;52.030;113.516;2023-11-21T04:43:11;93636.69;;;0.21
69420;BMP280;71621;52.030;113.516;2023-11-21T04:46:15;93633.25;;;0.09
69420;BMP280;71621;52.030;113.516;2023-11-21T04:49:19;93630.78;;;0.11
69420;BMP280;71621;52.030;113.516;2023-11-21T04:52:22;93634.31;;;0.25
69420;BMP280;71621;52.030;113.516;2023-11-21T04:55:26;93636.38;;;0.27
69420;BMP280;71621;52.030;113.516;2023-11-21T04:58:31;93629.75;;;0.26
69420;BMP280;71621;52.030;113.516;2023-11-21T05:01:35;93633.22;;;0.19
69420;BMP280;71621;52.030;113.516;2023-11-21T05:04:39;93628.81;;;0.21
69420;BMP280;71621;52.030;113.516;2023-11-21T05:07:45;93625.53;;;0.33
69420;BMP280;71621;52.030;113.516;2023-11-21T05:10:48;93625.09;;;0.36
69420;BMP280;71621;52.030;113.516;2023-11-21T05:13:53;93623.03;;;0.35
69420;BMP280;71621;52.030;113.516;2023-11-21T05:16:58;93635.94;;;0.31
69420;BMP280;71621;52.030;113.516;2023-11-21T05:20:03;93628.97;;;0.35
69420;BMP280;71621;52.030;113.516;2023-11-21T05:23:07;93630.38;;;0.36
69420;BMP280;71621;52.030;113.516;2023-11-21T05:26:11;93631.56;;;0.45
69420;BMP280;71621;52.030;113.516;2023-11-21T05:29:14;93633.75;;;0.48
69420;BMP280;71621;52.030;113.516;2023-11-21T05:32:18;93626.50;;;0.58
69420;BMP280;71621;52.030;113.516;2023-11-21T05:35:21;93616.78;;;0.61
69420;BMP280;71621;52.030;113.516;2023-11-21T05:38:24;93623.69;;;0.66
69420;BMP280;71621;52.030;113.516;2023-11-21T05:41:28;93622.31;;;0.65
69420;BMP280;71621;52.030;113.516;2023-11-21T05:44:32;93618.44;;;0.66
69420;BMP280;71621;52.030;113.516;2023-11-21T05:47:40;93622.13;;;0.73
69420;BMP280;71621;52.030;113.516;2023-11-21T05:50:44;93614.78;;;0.71
69420;BMP280;71621;52.030;113.516;2023-11-21T05:53:48;93608.03;;;0.68
69420;BMP280;71621;52.030;113.516;2023-11-21T05:56:51;93604.59;;;0.66
69420;BMP280;71621;52.030;113.516;2023-11-21T05:59:56;93619.13;;;0.67
69420;BMP280;71621;52.030;113.516;2023-11-21T06:02:59;93619.25;;;0.69
69420;BMP280;71621;52.030;113.516;2023-11-21T06:06:03;93609.72;;;0.64
69420;BMP280;71621;52.030;113.516;2023-11-21T06:09:07;93614.91;;;0.52
69420;BMP280;71621;52.030;113.516;2023-11-21T06:12:15;93605.16;;;0.43
69420;BMP280;71621;52.030;113.516;2023-11-21T06:15:19;93601.16;;;0.42
69420;BMP280;71621;52.030;113.516;2023-11-21T06:18:24;93602.66;;;0.45
69420;BMP280;71621;52.030;113.516;2023-11-21T06:21:27;93597.50;;;0.47
69420;BMP280;71621;52.030;113.516;2023-11-21T06:24:32;93605.41;;;0.47
69420;BMP280;71621;52.030;113.516;2023-11-21T06:27:39;93602.66;;;0.45
69420;BMP280;71621;52.030;113.516;2023-11-21T06:30:43;93596.75;;;0.35
69420;BMP280;71621;52.030;113.516;2023-11-21T06:33:47;93607.50;;;0.39
69420;BMP280;71621;52.030;113.516;2023-11-21T06:36:51;93601.16;;;0.42
69420;BMP280;71621;52.030;113.516;2023-11-21T06:39:57;93609.34;;;0.36
69420;BMP280;71621;52.030;113.516;2023-11-21T06:43:01;93601.00;;;0.18
69420;BMP280;71621;52.030;113.516;2023-11-21T06:46:05;93600.81;;;0.05
69420;BMP280;71621;52.030;113.516;2023-11-21T06:49:08;93595.28;;;0.01
69420;BMP280;71621;52.030;113.516;2023-11-21T06:52:12;93598.09;;;-0.07
69420;BMP280;71621;52.030;113.516;2023-11-21T06:55:16;93592.44;;;-0.13
69420;BMP280;71621;52.030;113.516;2023-11-21T06:58:19;93589.97;;;-0.21
69420;BMP280;71621;52.030;113.516;2023-11-21T07:01:23;93602.41;;;-0.21
69420;BMP280;71621;52.030;113.516;2023-11-21T07:04:27;93591.88;;;-0.12
69420;BMP280;71621;52.030;113.516;2023-11-21T07:07:31;93606.09;;;-0.05
69420;BMP280;71621;52.030;113.516;2023-11-21T07:10:35;93594.50;;;-0.12
69420;BMP280;71621;52.030;113.516;2023-11-21T07:13:39;93605.19;;;-0.19
69420;BMP280;71621;52.030;113.516;2023-11-21T07:16:43;93594.97;;;-0.25
69420;BMP280;71621;52.030;113.516;2023-11-21T07:19:46;93598.28;;;-0.34
69420;BMP280;71621;52.030;113.516;2023-11-21T07:22:50;93597.72;;;-0.33
69420;BMP280;71621;52.030;113.516;2023-11-21T07:25:54;93587.66;;;-0.36
69420;BMP280;71621;52.030;113.516;2023-11-21T07:28:57;93584.47;;;-0.35
69420;BMP280;71621;52.030;113.516;2023-11-21T07:32:01;93589.72;;;-0.35
69420;BMP280;71621;52.030;113.516;2023-11-21T07:35:05;93587.09;;;-0.35
69420;BMP280;71621;52.030;113.516;2023-11-21T07:38:10;93595.28;;;-0.31
69420;BMP280;71621;52.030;113.516;2023-11-21T07:41:14;93584.09;;;-0.31
69420;BMP280;71621;52.030;113.516;2023-11-21T07:44:32;93585.72;;;-0.36
69420;BMP280;71621;52.030;113.516;2023-11-21T07:47:36;93596.25;;;-0.45
69420;BMP280;71621;52.030;113.516;2023-11-21T07:50:39;93600.13;;;-0.56
69420;BMP280;71621;52.030;113.516;2023-11-21T07:53:43;93605.81;;;-0.60
69420;BMP280;71621;52.030;113.516;2023-11-21T07:56:47;93599.34;;;-0.68
69420;BMP280;71621;52.030;113.516;2023-11-21T07:59:50;93592.97;;;-0.75
69420;BMP280;71621;52.030;113.516;2023-11-21T08:02:56;93598.66;;;-0.78
69420;BMP280;71621;52.030;113.516;2023-11-21T08:06:00;93589.13;;;-0.83
69420;BMP280;71621;52.030;113.516;2023-11-21T08:09:06;93600.59;;;-0.79
69420;BMP280;71621;52.030;113.516;2023-11-21T08:12:11;93596.47;;;-0.82
69420;BMP280;71621;52.030;113.516;2023-11-21T08:15:14;93606.25;;;-0.82
69420;BMP280;71621;52.030;113.516;2023-11-21T08:18:18;93605.16;;;-0.79
69420;BMP280;71621;52.030;113.516;2023-11-21T08:21:22;93603.78;;;-0.80
69420;BMP280;71621;52.030;113.516;2023-11-21T08:24:31;93609.03;;;-0.80
69420;BMP280;71621;52.030;113.516;2023-11-21T08:27:35;93610.66;;;-0.85
69420;BMP280;71621;52.030;113.516;2023-11-21T08:30:39;93605.72;;;-0.91
69420;BMP280;71621;52.030;113.516;2023-11-21T08:33:42;93606.81;;;-0.94
69420;BMP280;71621;52.030;113.516;2023-11-21T08:36:46;93611.66;;;-1.00
69420;BMP280;71621;52.030;113.516;2023-11-21T08:39:50;93617.16;;;-1.05
69420;BMP280;71621;52.030;113.516;2023-11-21T08:42:53;93614.28;;;-1.09
69420;BMP280;71621;52.030;113.516;2023-11-21T08:45:57;93607.22;;;-1.17
69420;BMP280;71621;52.030;113.516;2023-11-21T08:49:01;93618.56;;;-1.14
69420;BMP280;71621;52.030;113.516;2023-11-21T08:52:05;93611.94;;;-1.25
69420;BMP280;71621;52.030;113.516;2023-11-21T08:55:09;93620.75;;;-1.30
69420;BMP280;71621;52.030;113.516;2023-11-21T08:58:15;93622.81;;;-1.28
69420;BMP280;71621;52.030;113.516;2023-11-21T09:01:19;93619.63;;;-1.27
69420;BMP280;71621;52.030;113.516;2023-11-21T09:04:23;93615.09;;;-1.26
69420;BMP280;71621;52.030;113.516;2023-11-21T09:07:26;93626.94;;;-1.25
69420;BMP280;71621;52.030;113.516;2023-11-21T09:10:30;93618.69;;;-1.31
69420;BMP280;71621;52.030;113.516;2023-11-21T09:13:33;93620.84;;;-1.37
69420;BMP280;71621;52.030;113.516;2023-11-21T09:16:37;93625.09;;;-1.52
69420;BMP280;71621;52.030;113.516;2023-11-21T09:19:41;93635.59;;;-1.52
69420;BMP280;71621;52.030;113.516;2023-11-21T09:22:49;93628.53;;;-1.59
69420;BMP280;71621;52.030;113.516;2023-11-21T09:25:52;93633.50;;;-1.63
69420;BMP280;71621;52.030;113.516;2023-11-21T09:29:00;93635.81;;;-1.67
69420;BMP280;71621;52.030;113.516;2023-11-21T09:32:06;93645.06;;;-1.66
69420;BMP280;71621;52.030;113.516;2023-11-21T09:35:11;93649.47;;;-1.68
69420;BMP280;71621;52.030;113.516;2023-11-21T09:38:18;93644.50;;;-1.74
69420;BMP280;71621;52.030;113.516;2023-11-21T09:41:34;93646.56;;;-1.73
69420;BMP280;71621;52.030;113.516;2023-11-21T09:45:01;93645.19;;;-1.74
69420;BMP280;71621;52.030;113.516;2023-11-21T09:48:09;93646.69;;;-1.80
69420;BMP280;71621;52.030;113.516;2023-11-21T09:51:15;93647.63;;;-1.85
69420;BMP280;71621;52.030;113.516;2023-11-21T09:54:18;93643.16;;;-1.92
69420;BMP280;71621;52.030;113.516;2023-11-21T09:57:25;93647.94;;;-1.98
69420;BMP280;71621;52.030;113.516;2023-11-21T10:00:29;93649.69;;;-2.11
69420;BMP280;71621;52.030;113.516;2023-11-21T10:03:36;93639.50;;;-2.16
69420;BMP280;71621;52.030;113.516;2023-11-21T10:06:41;93648.41;;;-2.19
69420;BMP280;71621;52.030;113.516;2023-11-21T10:09:46;93651.75;;;-2.19
69420;BMP280;71621;52.030;113.516;2023-11-21T10:12:56;93656.28;;;-2.19
69420;BMP280;71621;52.030;113.516;2023-11-21T10:16:00;93646.91;;;-2.22
69420;BMP280;71621;52.030;113.516;2023-11-21T10:19:10;93665.22;;;-2.22
69420;BMP280;71621;52.030;113.516;2023-11-21T10:22:17;93666.31;;;-2.25
69420;BMP280;71621;52.030;113.516;2023-11-21T10:25:22;93658.53;;;-2.33
69420;BMP280;71621;52.030;113.516;2023-11-21T10:28:26;93664.84;;;-2.36
69420;BMP280;71621;52.030;113.516;2023-11-21T10:31:30;93665.25;;;-2.40
69420;BMP280;71621;52.030;113.516;2023-11-21T10:34:34;93667.13;;;-2.50
69420;BMP280;71621;52.030;113.516;2023-11-21T10:37:39;93666.09;;;-2.54
69420;BMP280;71621;52.030;113.516;2023-11-21T10:40:44;93661.34;;;-2.66
69420;BMP280;71621;52.030;113.516;2023-11-21T10:43:53;93661.81;;;-2.77
69420;BMP280;71621;52.030;113.516;2023-11-21T10:47:00;93657.88;;;-2.86
69420;BMP280;71621;52.030;113.516;2023-11-21T10:50:05;93668.59;;;-2.91
69420;BMP280;71621;52.030;113.516;2023-11-21T10:53:10;93677.16;;;-2.98
69420;BMP280;71621;52.030;113.516;2023-11-21T10:56:15;93675.31;;;-3.05
69420;BMP280;71621;52.030;113.516;2023-11-21T10:59:22;93677.41;;;-3.21
69420;BMP280;71621;52.030;113.516;2023-11-21T11:02:28;93675.25;;;-3.40
69420;BMP280;71621;52.030;113.516;2023-11-21T11:05:35;93672.16;;;-3.46
69420;BMP280;71621;52.030;113.516;2023-11-21T11:08:40;93682.78;;;-3.44
69420;BMP280;71621;52.030;113.516;2023-11-21T11:11:43;93675.00;;;-3.52
69420;BMP280;71621;52.030;113.516;2023-11-21T11:14:48;93676.97;;;-3.60
69420;BMP280;71621;52.030;113.516;2023-11-21T11:17:52;93686.75;;;-3.68
69420;BMP280;71621;52.030;113.516;2023-11-21T11:21:33;93699.16;;;-3.76
69420;BMP280;71621;52.030;113.516;2023-11-21T11:28:07;93699.63;;;-3.95
69420;BMP280;71621;52.030;113.516;2023-11-21T11:35:06;93706.25;;;-4.02
69420;BMP280;71621;52.030;113.516;2023-11-21T11:38:10;93716.19;;;-4.08
69420;BMP280;71621;52.030;113.516;2023-11-21T11:41:25;93723.31;;;-4.08
69420;BMP280;71621;52.030;113.516;2023-11-21T11:44:50;93724.03;;;-4.08
69420;BMP280;71621;52.030;113.516;2023-11-21T11:48:00;93729.78;;;-4.09
69420;BMP280;71621;52.030;113.516;2023-11-21T11:54:07;93722.34;;;-4.28
69420;BMP280;71621;52.030;113.516;2023-11-21T11:57:12;93732.44;;;-4.25
69420;BMP280;71621;52.030;113.516;2023-11-21T12:00:19;93741.13;;;-4.22
69420;BMP280;71621;52.030;113.516;2023-11-21T12:03:25;93740.97;;;-4.16
69420;BMP280;71621;52.030;113.516;2023-11-21T12:06:35;93744.25;;;-4.16
69420;BMP280;71621;52.030;113.516;2023-11-21T12:09:39;93739.72;;;-4.23
69420;BMP280;71621;52.030;113.516;2023-11-21T12:12:47;93745.66;;;-4.22
69420;BMP280;71621;52.030;113.516;2023-11-21T12:15:51;93748.78;;;-4.16
69420;BMP280;71621;52.030;113.516;2023-11-21T12:18:55;93750.16;;;-4.15
69420;BMP280;71621;52.030;113.516;2023-11-21T12:21:59;93745.97;;;-4.11
69420;BMP280;71621;52.030;113.516;2023-11-21T12:25:03;93755.72;;;-4.11
69420;BMP280;71621;52.030;113.516;2023-11-21T12:28:06;93755.56;;;-4.13
69420;BMP280;71621;52.030;113.516;2023-11-21T12:31:10;93757.09;;;-4.18
69420;BMP280;71621;52.030;113.516;2023-11-21T12:34:24;93758.00;;;-4.23
69420;BMP280;71621;52.030;113.516;2023-11-21T12:37:27;93746.00;;;-4.26
69420;BMP280;71621;52.030;113.516;2023-11-21T12:40:31;93755.22;;;-4.25
69420;BMP280;71621;52.030;113.516;2023-11-21T12:43:34;93756.94;;;-4.20
69420;BMP280;71621;52.030;113.516;2023-11-21T12:46:42;93755.91;;;-4.25
69420;BMP280;71621;52.030;113.516;2023-11-21T12:49:45;93761.16;;;-4.32
69420;BMP280;71621;52.030;113.516;2023-11-21T12:52:51;93754.19;;;-4.30
69420;BMP280;71621;52.030;113.516;2023-11-21T12:55:56;93770.72;;;-4.27
69420;BMP280;71621;52.030;113.516;2023-11-21T12:59:01;93772.78;;;-4.26
69420;BMP280;71621;52.030;113.516;2023-11-21T13:02:08;93767.22;;;-4.30
69420;BMP280;71621;52.030;113.516;2023-11-21T13:05:12;93772.28;;;-4.32
69420;BMP280;71621;52.030;113.516;2023-11-21T13:08:25;93769.19;;;-4.45
69420;BMP280;71621;52.030;113.516;2023-11-21T13:11:30;93766.56;;;-4.61
69420;BMP280;71621;52.030;113.516;2023-11-21T13:14:37;93771.47;;;-4.57
69420;BMP280;71621;52.030;113.516;2023-11-21T13:17:40;93765.91;;;-4.54
69420;BMP280;71621;52.030;113.516;2023-11-21T13:20:44;93773.00;;;-4.46
69420;BMP280;71621;52.030;113.516;2023-11-21T13:23:49;93770.94;;;-4.48
69420;BMP280;71621;52.030;113.516;2023-11-21T13:26:56;93771.09;;;-4.46
69420;BMP280;71621;52.030;113.516;2023-11-21T13:30:01;93769.19;;;-4.45
69420;BMP280;71621;52.030;113.516;2023-11-21T13:33:05;93774.88;;;-4.39
69420;BMP280;71621;52.030;113.516;2023-11-21T13:36:11;93785.16;;;-4.41
69420;BMP280;71621;52.030;113.516;2023-11-21T13:39:17;93781.53;;;-4.46
69420;BMP280;71621;52.030;113.516;2023-11-21T13:42:22;93784.69;;;-4.55
69420;BMP280;71621;52.030;113.516;2023-11-21T13:45:28;93786.75;;;-4.61
69420;BMP280;71621;52.030;113.516;2023-11-21T13:48:33;93789.56;;;-4.67
69420;BMP280;71621;52.030;113.516;2023-11-21T13:51:51;93784.69;;;-4.78
69420;BMP280;71621;52.030;113.516;2023-11-21T13:54:58;93792.69;;;-4.68
69420;BMP280;71621;52.030;113.516;2023-11-21T13:58:04;93785.72;;;-4.73
69420;BMP280;71621;52.030;113.516;2023-11-21T14:01:13;93783.28;;;-4.79
69420;BMP280;71621;52.030;113.516;2023-11-21T14:04:32;93781.53;;;-4.84
69420;BMP280;71621;52.030;113.516;2023-11-21T14:07:35;93789.88;;;-4.78
69420;BMP280;71621;52.030;113.516;2023-11-21T14:10:39;93788.50;;;-4.79
69420;BMP280;71621;52.030;113.516;2023-11-21T14:13:53;93789.88;;;-4.86
69420;BMP280;71621;52.030;113.516;2023-11-21T14:16:57;93801.69;;;-4.92
69420;BMP280;71621;52.030;113.516;2023-11-21T14:20:02;93804.13;;;-4.94
69420;BMP280;71621;52.030;113.516;2023-11-21T14:23:09;93796.28;;;-4.94
69420;BMP280;71621;52.030;113.516;2023-11-21T14:26:13;93796.66;;;-4.90
69420;BMP280;71621;52.030;113.516;2023-11-21T14:29:19;93794.59;;;-4.92
69420;BMP280;71621;52.030;113.516;2023-11-21T14:32:23;93793.19;;;-5.00
69420;BMP280;71621;52.030;113.516;2023-11-21T14:35:28;93797.53;;;-5.11
69420;BMP280;71621;52.030;113.516;2023-11-21T14:38:36;93793.72;;;-5.10
69420;BMP280;71621;52.030;113.516;2023-11-21T14:41:43;93796.47;;;-5.08
69420;BMP280;71621;52.030;113.516;2023-11-21T14:44:47;93792.81;;;-5.04
69420;BMP280;71621;52.030;113.516;2023-11-21T14:47:52;93796.47;;;-5.08
69420;BMP280;71621;52.030;113.516;2023-11-21T14:51:09;93796.44;;;-5.15
69420;BMP280;71621;52.030;113.516;2023-11-21T14:54:32;93797.50;;;-5.18
69420;BMP280;71621;52.030;113.516;2023-11-21T14:57:41;93789.84;;;-5.24
69420;BMP280;71621;52.030;113.516;2023-11-21T15:00:54;93790.19;;;-5.27
69420;BMP280;71621;52.030;113.516;2023-11-21T15:04:01;93793.28;;;-5.37
69420;BMP280;71621;52.030;113.516;2023-11-21T15:07:05;93799.34;;;-5.49
69420;BMP280;71621;52.030;113.516;2023-11-21T15:10:09;93790.84;;;-5.50
69420;BMP280;71621;52.030;113.516;2023-11-21T15:13:18;93795.34;;;-5.43
69420;BMP280;71621;52.030;113.516;2023-11-21T15:16:22;93792.06;;;-5.36
69420;BMP280;71621;52.030;113.516;2023-11-21T15:19:26;93782.34;;;-5.35
69420;BMP280;71621;52.030;113.516;2023-11-21T15:22:31;93804.41;;;-5.28
69420;BMP280;71621;52.030;113.516;2023-11-21T15:25:35;93791.72;;;-5.32
69420;BMP280;71621;52.030;113.516;2023-11-21T15:28:39;93796.75;;;-5.34
69420;BMP280;71621;52.030;113.516;2023-11-21T15:31:42;93796.59;;;-5.36
69420;BMP280;71621;52.030;113.516;2023-11-21T15:34:51;93803.72;;;-5.37
69420;BMP280;71621;52.030;113.516;2023-11-21T15:37:55;93793.28;;;-5.37
69420;BMP280;71621;52.030;113.516;2023-11-21T15:41:02;93799.22;;;-5.28
69420;BMP280;71621;52.030;113.516;2023-11-21T15:44:07;93802.53;;;-5.28
69420;BMP280;71621;52.030;113.516;2023-11-21T15:47:13;93801.31;;;-5.27
69420;BMP280;71621;52.030;113.516;2023-11-21T15:50:17;93805.16;;;-5.20
69420;BMP280;71621;52.030;113.516;2023-11-21T15:53:20;93807.41;;;-5.17
69420;BMP280;71621;52.030;113.516;2023-11-21T15:56:24;93791.75;;;-5.17
69420;BMP280;71621;52.030;113.516;2023-11-21T15:59:28;93807.03;;;-5.13
69420;BMP280;71621;52.030;113.516;2023-11-21T16:02:34;93804.94;;;-5.22
69420;BMP280;71621;52.030;113.516;2023-11-21T16:05:39;93811.38;;;-5.23
69420;BMP280;71621;52.030;113.516;2023-11-21T16:08:43;93815.38;;;-5.22
69420;BMP280;71621;52.030;113.516;2023-11-21T16:11:47;93812.59;;;-5.24
69420;BMP280;71621;52.030;113.516;2023-11-21T16:14:51;93816.25;;;-5.27
69420;BMP280;71621;52.030;113.516;2023-11-21T16:17:55;93819.88;;;-5.30
69420;BMP280;71621;52.030;113.516;2023-11-21T16:20:59;93812.56;;;-5.32
69420;BMP280;71621;52.030;113.516;2023-11-21T16:24:02;93806.84;;;-5.38
69420;BMP280;71621;52.030;113.516;2023-11-21T16:27:06;93810.66;;;-5.39
69420;BMP280;71621;52.030;113.516;2023-11-21T16:30:13;93813.38;;;-5.45
69420;BMP280;71621;52.030;113.516;2023-11-21T16:33:17;93809.03;;;-5.57
69420;BMP280;71621;52.030;113.516;2023-11-21T16:36:20;93808.47;;;-5.64
69420;BMP280;71621;52.030;113.516;2023-11-21T16:39:24;93807.44;;;-5.68
69420;BMP280;71621;52.030;113.516;2023-11-21T16:42:27;93810.91;;;-5.66
69420;BMP280;71621;52.030;113.516;2023-11-21T16:45:33;93814.88;;;-5.65
69420;BMP280;71621;52.030;113.516;2023-11-21T16:48:37;93818.19;;;-5.72
69420;BMP280;71621;52.030;113.516;2023-11-21T16:51:42;93808.41;;;-5.79
69420;BMP280;71621;52.030;113.516;2023-11-21T16:54:45;93814.66;;;-5.82
69420;BMP280;71621;52.030;113.516;2023-11-21T16:57:49;93813.97;;;-5.82
69420;BMP280;71621;52.030;113.516;2023-11-21T17:00:53;93818.47;;;-5.83
69420;BMP280;71621;52.030;113.516;2023-11-21T17:03:57;93822.94;;;-5.91
69420;BMP280;71621;52.030;113.516;2023-11-21T17:07:01;93820.13;;;-6.01
69420;BMP280;71621;52.030;113.516;2023-11-21T17:10:05;93820.28;;;-5.99
69420;BMP280;71621;52.030;113.516;2023-11-21T17:13:12;93824.94;;;-6.05
69420;BMP280;71621;52.030;113.516;2023-11-21T17:16:16;93836.19;;;-6.10
69420;BMP280;71621;52.030;113.516;2023-11-21T17:19:19;93838.69;;;-6.25
69420;BMP280;71621;52.030;113.516;2023-11-21T17:22:23;93842.72;;;-6.45
69420;BMP280;71621;52.030;113.516;2023-11-21T17:25:26;93843.28;;;-6.60
69420;BMP280;71621;52.030;113.516;2023-11-21T17:28:30;93838.09;;;-6.81